KOOA/OOA METAR and TAF weather

Enter ICAO airport designator
Station Type Date Time Source
KOOA METAR 2020/11/27 14:55 UTC NOAA

KOOA 271455Z AUTO 32008KT 3SM BR OVC003 01/01 A3021 RMK AO2 T00130010


Station Type Date Time Source
KOOA Decoded METAR 2020/11/27 14:55 UTC NOAA

Oskaloosa, Oskaloosa Municipal Airport, IA, United States (KOOA) 41-13-34N 092-29-37W
Nov 27, 2020 - 09:55 AM EST / 2020.11.27 1455 UTC
Wind: from the NW (320 degrees) at 9 MPH (8 KT):0
Visibility: 3 mile(s):0
Sky conditions: overcast
Weather: mist
Temperature: 34.3 F (1.3 C)
Windchill: 26 F (-3 C):1
Dew Point: 33.8 F (1.0 C)
Relative Humidity: 97%
Pressure (altimeter): 30.21 in. Hg (1023 hPa)
ob: KOOA 271455Z AUTO 32008KT 3SM BR OVC003 01/01 A3021 RMK AO2 T00130010
cycle: 15

Station Type Date Time Source
KOOA TAF UTC NOAA

Error!

Example: see airport list